createdAt,value
2023-04-18T00:00:58.412Z,0.00
2023-04-18T00:01:58.450Z,0.00
2023-04-18T00:03:00.217Z,0.00
2023-04-18T00:03:58.516Z,0.00
2023-04-18T00:04:58.424Z,0.00
2023-04-18T00:05:58.334Z,0.00
2023-04-18T00:06:58.368Z,0.00
2023-04-18T00:07:58.289Z,0.00
2023-04-18T00:08:58.678Z,0.00
2023-04-18T00:09:58.299Z,0.00
2023-04-18T00:10:58.294Z,0.00
2023-04-18T00:11:58.251Z,0.00
2023-04-18T00:12:58.307Z,0.00
2023-04-18T00:13:58.254Z,0.00
2023-04-18T00:14:58.286Z,0.00
2023-04-18T00:15:58.231Z,0.00
2023-04-18T00:16:58.288Z,0.00
2023-04-18T00:17:58.219Z,0.00
2023-04-18T00:18:58.229Z,0.00
2023-04-18T00:19:58.205Z,0.00
2023-04-18T00:20:58.284Z,0.00
2023-04-18T00:21:58.168Z,0.00
2023-04-18T00:22:58.216Z,0.00
2023-04-18T00:23:58.130Z,0.00
2023-04-18T00:24:58.239Z,0.00
2023-04-18T00:25:58.141Z,0.00
2023-04-18T00:26:58.199Z,0.00
2023-04-18T00:27:58.088Z,0.00
2023-04-18T00:28:58.173Z,0.00
2023-04-18T00:29:58.084Z,0.00
2023-04-18T00:30:58.126Z,0.00
2023-04-18T00:31:58.104Z,0.00
2023-04-18T00:32:58.125Z,0.00
2023-04-18T00:33:58.058Z,0.00
2023-04-18T00:34:58.061Z,0.00
2023-04-18T00:35:58.024Z,0.00
2023-04-18T00:36:58.003Z,0.00
2023-04-18T00:37:57.983Z,0.00
2023-04-18T00:38:57.989Z,0.00
2023-04-18T00:39:57.995Z,0.00
2023-04-18T00:40:58.118Z,0.00
2023-04-18T00:41:57.948Z,0.00
2023-04-18T00:42:57.982Z,0.00
2023-04-18T00:43:57.974Z,0.00
2023-04-18T00:44:58.058Z,0.00
2023-04-18T00:45:58.019Z,0.00
2023-04-18T00:46:58.084Z,0.00
2023-04-18T00:47:58.086Z,0.00
2023-04-18T00:48:57.943Z,0.00
2023-04-18T00:49:57.961Z,0.00
2023-04-18T00:50:57.892Z,0.00
2023-04-18T00:51:57.995Z,0.00
2023-04-18T00:52:57.859Z,0.00
2023-04-18T00:53:57.819Z,0.00
2023-04-18T00:54:57.866Z,0.00
2023-04-18T00:55:58.026Z,0.00
2023-04-18T00:56:57.764Z,0.00
2023-04-18T00:57:57.789Z,0.00
2023-04-18T00:58:57.789Z,0.00
2023-04-18T00:59:57.747Z,0.00
2023-04-18T01:00:57.830Z,0.00
2023-04-18T01:01:57.811Z,0.00
2023-04-18T01:02:57.850Z,0.00
2023-04-18T01:03:58.201Z,0.00
2023-04-18T01:04:57.827Z,0.00
2023-04-18T01:05:57.814Z,0.00
2023-04-18T01:06:57.805Z,0.00
2023-04-18T01:07:57.763Z,0.00
2023-04-18T01:08:57.683Z,0.00
2023-04-18T01:09:57.883Z,0.00
2023-04-18T01:10:57.657Z,0.00
2023-04-18T01:11:57.680Z,0.00
2023-04-18T01:12:57.864Z,0.00
2023-04-18T01:13:57.632Z,0.00
2023-04-18T01:14:57.667Z,0.00
2023-04-18T01:15:57.641Z,0.00
2023-04-18T01:16:57.572Z,0.00
2023-04-18T01:17:57.652Z,0.00
2023-04-18T01:18:57.677Z,0.00
2023-04-18T01:19:57.676Z,0.00
2023-04-18T01:20:57.590Z,0.00
2023-04-18T01:21:57.526Z,0.00
2023-04-18T01:22:57.672Z,0.00
2023-04-18T01:23:57.529Z,0.00
2023-04-18T01:24:57.561Z,0.00
2023-04-18T01:25:57.564Z,0.00
2023-04-18T01:26:57.525Z,0.00
2023-04-18T01:27:57.480Z,0.00
2023-04-18T01:29:07.843Z,0.00
2023-04-18T01:29:57.705Z,0.00
2023-04-18T01:30:57.742Z,0.00
2023-04-18T01:31:57.435Z,0.00
2023-04-18T01:32:57.497Z,0.00
2023-04-18T01:33:57.406Z,0.00
2023-04-18T01:34:57.417Z,0.00
2023-04-18T01:35:57.520Z,0.00
2023-04-18T01:36:57.382Z,0.00
2023-04-18T01:37:57.391Z,0.00
2023-04-18T01:38:57.427Z,0.00
2023-04-18T01:39:57.394Z,0.00
2023-04-18T01:40:57.517Z,0.00
2023-04-18T01:41:57.368Z,0.00
2023-04-18T01:42:57.371Z,0.00
2023-04-18T01:43:57.353Z,0.00
2023-04-18T01:44:57.336Z,0.00
2023-04-18T01:45:57.300Z,0.00
2023-04-18T01:46:57.352Z,0.00
2023-04-18T01:47:57.371Z,0.00
2023-04-18T01:48:57.372Z,0.00
2023-04-18T01:49:57.262Z,0.00
2023-04-18T01:50:57.279Z,0.00
2023-04-18T01:51:57.254Z,0.00
2023-04-18T01:52:57.249Z,0.00
2023-04-18T01:53:57.264Z,0.00
2023-04-18T01:54:57.184Z,0.00
2023-04-18T01:55:57.169Z,0.00
2023-04-18T01:56:57.160Z,0.00
2023-04-18T01:57:57.266Z,0.00
2023-04-18T01:58:57.217Z,0.00
2023-04-18T01:59:57.122Z,0.00
2023-04-18T02:00:57.217Z,0.00
2023-04-18T02:01:57.208Z,0.00
2023-04-18T02:02:57.170Z,0.00
2023-04-18T02:03:57.329Z,0.00
2023-04-18T02:04:57.123Z,0.00
2023-04-18T02:05:57.109Z,0.00
2023-04-18T02:06:57.686Z,0.00
2023-04-18T02:07:57.068Z,0.00
2023-04-18T02:08:57.120Z,0.00
2023-04-18T02:09:57.121Z,0.00
2023-04-18T02:10:57.025Z,0.00
2023-04-18T02:11:57.131Z,0.00
2023-04-18T02:12:57.064Z,0.00
2023-04-18T02:13:57.009Z,0.00
2023-04-18T02:14:57.003Z,0.00
2023-04-18T02:15:57.141Z,0.00
2023-04-18T02:16:57.009Z,0.00
2023-04-18T02:17:56.953Z,0.00
2023-04-18T02:18:56.927Z,0.00
2023-04-18T02:19:56.938Z,0.00
2023-04-18T02:20:56.975Z,0.00
2023-04-18T02:21:56.976Z,0.00
2023-04-18T02:22:56.908Z,0.00
2023-04-18T02:23:56.902Z,0.00
2023-04-18T02:24:56.873Z,0.00
2023-04-18T02:25:56.867Z,0.00
2023-04-18T02:26:56.834Z,0.00
2023-04-18T02:27:56.845Z,0.00
2023-04-18T02:28:56.870Z,0.00
2023-04-18T02:29:56.823Z,0.00
2023-04-18T02:30:56.797Z,0.00
2023-04-18T02:31:56.846Z,0.00
2023-04-18T02:32:56.841Z,0.00
2023-04-18T02:33:56.826Z,0.00
2023-04-18T02:34:56.771Z,0.00
2023-04-18T02:35:56.787Z,0.00
2023-04-18T02:36:56.758Z,0.00
2023-04-18T02:37:56.754Z,0.00
2023-04-18T02:38:56.723Z,0.00
2023-04-18T02:39:56.723Z,0.00
2023-04-18T02:40:57.820Z,0.00
2023-04-18T02:41:56.701Z,0.00
2023-04-18T02:42:56.694Z,0.00
2023-04-18T02:43:56.697Z,0.00
2023-04-18T02:44:56.694Z,0.00
2023-04-18T02:45:56.706Z,0.00
2023-04-18T02:46:56.659Z,0.00
2023-04-18T02:47:56.956Z,0.00
2023-04-18T02:48:56.636Z,0.00
2023-04-18T02:49:56.680Z,0.00
2023-04-18T02:50:56.627Z,0.00
2023-04-18T02:51:56.576Z,0.00
2023-04-18T02:52:56.621Z,0.00
2023-04-18T02:53:56.648Z,0.00
2023-04-18T02:54:56.590Z,0.00
2023-04-18T02:55:56.543Z,0.00
2023-04-18T02:56:56.592Z,0.00
2023-04-18T02:57:56.509Z,0.00
2023-04-18T02:58:56.506Z,0.00
2023-04-18T02:59:56.605Z,0.00
2023-04-18T03:00:56.553Z,0.00
2023-04-18T03:01:56.576Z,0.00
2023-04-18T03:02:56.696Z,0.00
2023-04-18T03:03:56.508Z,0.00
2023-04-18T03:04:56.583Z,0.00
2023-04-18T03:05:56.583Z,0.00
2023-04-18T03:06:56.465Z,0.00
2023-04-18T03:07:56.428Z,0.00
2023-04-18T03:08:56.653Z,0.00
2023-04-18T03:09:56.410Z,0.00
2023-04-18T03:10:56.569Z,0.00
2023-04-18T03:11:56.495Z,0.00
2023-04-18T03:12:56.399Z,0.00
2023-04-18T03:13:56.456Z,0.00
2023-04-18T03:14:56.362Z,0.00
2023-04-18T03:15:56.411Z,0.00
2023-04-18T03:16:56.330Z,0.00
2023-04-18T03:17:56.861Z,0.00
2023-04-18T03:18:56.314Z,0.00
2023-04-18T03:19:56.323Z,0.00
2023-04-18T03:20:56.328Z,0.00
2023-04-18T03:21:56.353Z,0.00
2023-04-18T03:22:56.271Z,0.00
2023-04-18T03:23:56.272Z,0.00
2023-04-18T03:24:56.247Z,0.00
2023-04-18T03:25:56.248Z,0.00
2023-04-18T03:26:56.254Z,0.00
2023-04-18T03:27:56.209Z,0.00
2023-04-18T03:28:56.216Z,0.00
2023-04-18T03:29:56.379Z,0.00
2023-04-18T03:30:56.219Z,0.00
2023-04-18T03:31:56.186Z,0.00
2023-04-18T03:32:56.353Z,0.00
2023-04-18T03:33:56.168Z,0.00
2023-04-18T03:34:56.192Z,0.00
2023-04-18T03:35:56.162Z,0.00
2023-04-18T03:36:56.217Z,0.00
2023-04-18T03:37:56.261Z,0.00
2023-04-18T03:38:56.079Z,0.00
2023-04-18T03:39:56.185Z,0.00
2023-04-18T03:40:56.083Z,0.00
2023-04-18T03:41:56.098Z,0.00
2023-04-18T03:42:56.065Z,0.00
2023-04-18T03:43:56.059Z,0.00
2023-04-18T03:44:56.079Z,0.00
2023-04-18T03:45:56.115Z,0.00
2023-04-18T03:46:56.047Z,0.00
2023-04-18T03:47:56.089Z,0.00
2023-04-18T03:48:56.032Z,0.00
2023-04-18T03:49:55.980Z,0.00
2023-04-18T03:50:55.973Z,0.00
2023-04-18T03:51:55.980Z,0.00
2023-04-18T03:52:55.992Z,0.00
2023-04-18T03:53:55.939Z,0.00
2023-04-18T03:54:55.991Z,0.00
2023-04-18T03:55:55.960Z,0.00
2023-04-18T03:56:55.941Z,0.00
2023-04-18T03:57:55.952Z,0.00
2023-04-18T03:58:55.938Z,0.00
2023-04-18T03:59:55.852Z,0.00
2023-04-18T04:00:55.894Z,0.00
2023-04-18T04:01:56.086Z,0.00
2023-04-18T04:02:56.092Z,0.00
2023-04-18T04:03:56.079Z,0.00
2023-04-18T04:04:55.909Z,0.00
2023-04-18T04:05:55.841Z,0.00
2023-04-18T04:06:55.886Z,0.00
2023-04-18T04:07:55.865Z,0.00
2023-04-18T04:08:55.805Z,0.00
2023-04-18T04:09:55.936Z,0.00
2023-04-18T04:10:55.862Z,1.00
2023-04-18T04:11:55.869Z,0.00
2023-04-18T04:12:55.782Z,0.00
2023-04-18T04:13:55.775Z,0.00
2023-04-18T04:14:55.745Z,0.00
2023-04-18T04:15:55.708Z,1.00
2023-04-18T04:16:55.960Z,1.00
2023-04-18T04:17:55.761Z,1.00
2023-04-18T04:18:55.666Z,1.00
2023-04-18T04:19:55.691Z,1.00
2023-04-18T04:20:55.669Z,1.00
2023-04-18T04:21:55.615Z,1.00
2023-04-18T04:22:55.646Z,0.00
2023-04-18T04:23:55.641Z,0.00
2023-04-18T04:24:55.831Z,0.00
2023-04-18T04:25:55.599Z,0.00
2023-04-18T04:26:55.599Z,0.00
2023-04-18T04:27:55.527Z,2.00
2023-04-18T04:28:55.518Z,1.00
2023-04-18T04:29:55.498Z,1.00
2023-04-18T04:30:55.534Z,2.00
2023-04-18T04:31:55.613Z,2.00
2023-04-18T04:32:55.554Z,3.00
2023-04-18T04:33:55.632Z,1.00
2023-04-18T04:34:55.499Z,4.00
2023-04-18T04:35:55.627Z,4.00
2023-04-18T04:36:55.480Z,3.00
2023-04-18T04:37:55.407Z,2.00
2023-04-18T04:38:55.484Z,5.00
2023-04-18T04:39:55.480Z,6.00
2023-04-18T04:40:55.376Z,1.00
2023-04-18T04:41:55.403Z,1.00
2023-04-18T04:42:55.465Z,1.00
2023-04-18T04:43:55.360Z,1.00
2023-04-18T04:44:55.546Z,1.00
2023-04-18T04:45:55.487Z,1.00
2023-04-18T04:46:55.322Z,1.00
2023-04-18T04:47:55.339Z,2.00
2023-04-18T04:48:55.369Z,2.00
2023-04-18T04:49:55.365Z,2.00
2023-04-18T04:50:55.313Z,2.00
2023-04-18T04:51:55.626Z,4.00
2023-04-18T04:52:55.293Z,4.00
2023-04-18T04:53:55.268Z,5.00
2023-04-18T04:54:55.273Z,2.00
2023-04-18T04:55:55.285Z,2.00
2023-04-18T04:56:55.218Z,3.00
2023-04-18T04:57:55.214Z,7.00
2023-04-18T04:58:55.226Z,1.00
2023-04-18T04:59:55.206Z,5.00
2023-04-18T05:00:55.254Z,7.00
2023-04-18T05:01:55.207Z,5.00
2023-04-18T05:02:55.362Z,5.00
2023-04-18T05:03:55.218Z,6.00
2023-04-18T05:04:55.206Z,6.00
2023-04-18T05:05:55.141Z,3.00
2023-04-18T05:06:55.241Z,3.00
2023-04-18T05:07:55.137Z,3.00
2023-04-18T05:08:55.116Z,2.00
2023-04-18T05:09:55.102Z,6.00
2023-04-18T05:10:55.112Z,6.00
2023-04-18T05:11:55.174Z,4.00
2023-04-18T05:12:55.105Z,4.00
2023-04-18T05:13:55.024Z,4.00
2023-04-18T05:14:55.144Z,4.00
2023-04-18T05:15:55.003Z,4.00
2023-04-18T05:16:55.099Z,6.00
2023-04-18T05:17:55.049Z,4.00
2023-04-18T05:18:55.242Z,4.00
2023-04-18T05:19:55.038Z,4.00
2023-04-18T05:20:55.033Z,3.00
2023-04-18T05:21:55.105Z,2.00
2023-04-18T05:22:54.950Z,2.00
2023-04-18T05:23:55.037Z,3.00
2023-04-18T05:24:55.139Z,2.00
2023-04-18T05:25:54.995Z,3.00
2023-04-18T05:26:55.009Z,2.00
2023-04-18T05:27:55.073Z,3.00
2023-04-18T05:28:54.944Z,4.00
2023-04-18T05:29:54.976Z,3.00
2023-04-18T05:30:54.870Z,8.00
2023-04-18T05:31:54.978Z,9.00
2023-04-18T05:32:55.016Z,4.00
2023-04-18T05:33:54.843Z,5.00
2023-04-18T05:34:54.833Z,6.00
2023-04-18T05:35:54.843Z,8.00
2023-04-18T05:36:54.874Z,7.00
2023-04-18T05:37:54.913Z,7.00
2023-04-18T05:38:54.835Z,6.00
2023-04-18T05:39:54.757Z,9.00
2023-04-18T05:40:54.833Z,8.00
2023-04-18T05:41:54.820Z,9.00
2023-04-18T05:42:54.817Z,5.00
2023-04-18T05:44:04.904Z,5.00
2023-04-18T05:44:54.775Z,7.00
2023-04-18T05:45:56.547Z,7.00
2023-04-18T05:46:54.789Z,5.00
2023-04-18T05:47:54.815Z,6.00
2023-04-18T05:48:54.758Z,9.00
2023-04-18T05:49:54.764Z,5.00
2023-04-18T05:50:54.658Z,7.00
2023-04-18T05:51:54.709Z,7.00
2023-04-18T05:52:54.704Z,3.00
2023-04-18T05:53:54.659Z,4.00
2023-04-18T05:54:54.663Z,8.00
2023-04-18T05:55:54.638Z,7.00
2023-04-18T05:56:54.715Z,8.00
2023-04-18T05:57:54.677Z,7.00
2023-04-18T05:58:54.598Z,6.00
2023-04-18T05:59:54.611Z,7.00
2023-04-18T06:00:54.542Z,9.00
2023-04-18T06:01:54.581Z,13.00
2023-04-18T06:02:54.713Z,7.00
2023-04-18T06:03:54.711Z,6.00
2023-04-18T06:04:54.745Z,4.00
2023-04-18T06:05:54.823Z,9.00
2023-04-18T06:06:54.557Z,16.00
2023-04-18T06:07:54.518Z,6.00
2023-04-18T06:08:54.715Z,12.00
2023-04-18T06:09:54.575Z,9.00
2023-04-18T06:10:54.499Z,4.00
2023-04-18T06:11:54.407Z,6.00
2023-04-18T06:12:54.434Z,9.00
2023-04-18T06:13:54.432Z,9.00
2023-04-18T06:14:54.433Z,10.00
2023-04-18T06:15:54.482Z,7.00
2023-04-18T06:16:54.456Z,6.00
2023-04-18T06:17:54.452Z,10.00
2023-04-18T06:18:54.401Z,10.00
2023-04-18T06:19:54.396Z,13.00
2023-04-18T06:20:54.322Z,15.00
2023-04-18T06:21:54.370Z,16.00
2023-04-18T06:22:54.386Z,14.00
2023-04-18T06:23:54.375Z,10.00
2023-04-18T06:24:54.291Z,8.00
2023-04-18T06:25:54.386Z,14.00
2023-04-18T06:26:54.278Z,14.00
2023-04-18T06:27:54.434Z,10.00
2023-04-18T06:28:54.423Z,8.00
2023-04-18T06:29:54.242Z,10.00
2023-04-18T06:30:54.308Z,11.00
2023-04-18T06:31:54.295Z,9.00
2023-04-18T06:32:54.267Z,14.00
2023-04-18T06:33:54.209Z,14.00
2023-04-18T06:34:54.188Z,16.00
2023-04-18T06:35:54.197Z,11.00
2023-04-18T06:36:54.173Z,14.00
2023-04-18T06:37:54.163Z,22.00
2023-04-18T06:38:54.161Z,18.00
2023-04-18T06:39:54.133Z,11.00
2023-04-18T06:40:54.109Z,15.00
2023-04-18T06:41:54.116Z,17.00
2023-04-18T06:42:54.196Z,23.00
2023-04-18T06:44:03.650Z,28.00
2023-04-18T06:44:54.127Z,10.00
2023-04-18T06:45:54.135Z,14.00
2023-04-18T06:46:54.097Z,24.00
2023-04-18T06:47:54.074Z,24.00
2023-04-18T06:48:54.152Z,21.00
2023-04-18T06:49:54.049Z,23.00
2023-04-18T06:50:54.029Z,15.00
2023-04-18T06:51:54.045Z,11.00
2023-04-18T06:52:54.100Z,29.00
2023-04-18T06:53:54.018Z,24.00
2023-04-18T06:54:54.007Z,11.00
2023-04-18T06:55:53.968Z,18.00
2023-04-18T06:56:53.988Z,12.00
2023-04-18T06:57:54.018Z,24.00
2023-04-18T06:58:53.996Z,31.00
2023-04-18T06:59:54.022Z,23.00
2023-04-18T07:00:53.954Z,13.00
2023-04-18T07:01:53.998Z,19.00
2023-04-18T07:02:54.097Z,19.00
2023-04-18T07:03:53.970Z,11.00
2023-04-18T07:04:54.056Z,23.00
2023-04-18T07:05:53.979Z,28.00
2023-04-18T07:06:53.857Z,26.00
2023-04-18T07:07:53.879Z,20.00
2023-04-18T07:08:54.543Z,16.00
2023-04-18T07:09:53.820Z,20.00
2023-04-18T07:10:53.844Z,51.00
2023-04-18T07:11:53.952Z,35.00
2023-04-18T07:12:53.818Z,29.00
2023-04-18T07:13:53.797Z,29.00
2023-04-18T07:14:53.756Z,32.00
2023-04-18T07:15:53.846Z,48.00
2023-04-18T07:16:53.787Z,29.00
2023-04-18T07:17:53.822Z,17.00
2023-04-18T07:18:53.749Z,49.00
2023-04-18T07:19:53.772Z,26.00
2023-04-18T07:20:53.722Z,34.00
2023-04-18T07:21:53.734Z,28.00
2023-04-18T07:22:53.752Z,36.00
2023-04-18T07:23:53.704Z,42.00
2023-04-18T07:24:53.660Z,36.00
2023-04-18T07:25:53.708Z,25.00
2023-04-18T07:26:55.038Z,17.00
2023-04-18T07:27:53.711Z,21.00
2023-04-18T07:28:53.695Z,25.00
2023-04-18T07:29:53.660Z,15.00
2023-04-18T07:30:53.628Z,14.00
2023-04-18T07:31:53.636Z,18.00
2023-04-18T07:32:53.623Z,17.00
2023-04-18T07:33:53.586Z,32.00
2023-04-18T07:34:53.561Z,21.00
2023-04-18T07:35:53.548Z,27.00
2023-04-18T07:36:53.667Z,33.00
2023-04-18T07:37:53.561Z,43.00
2023-04-18T10:48:33.766Z,93.00
2023-04-18T10:49:33.083Z,121.00
2023-04-18T10:50:32.783Z,71.00
2023-04-18T10:51:32.812Z,61.00
2023-04-18T10:52:32.793Z,78.00
2023-04-18T10:53:32.775Z,85.00
2023-04-18T10:54:32.774Z,171.00
2023-04-18T10:55:32.761Z,85.00
2023-04-18T10:56:32.729Z,97.00
2023-04-18T10:57:32.725Z,137.00
2023-04-18T10:58:32.716Z,133.00
2023-04-18T10:59:32.766Z,143.00
2023-04-18T11:00:32.769Z,101.00
2023-04-18T11:01:33.191Z,107.00
2023-04-18T11:02:32.865Z,118.00
2023-04-18T11:03:32.747Z,167.00
2023-04-18T11:04:32.704Z,117.00
2023-04-18T11:05:32.661Z,148.00
2023-04-18T11:06:32.658Z,116.00
2023-04-18T11:07:32.626Z,106.00
2023-04-18T11:08:32.608Z,180.00
2023-04-18T11:09:32.601Z,101.00
2023-04-18T11:10:32.636Z,95.00
2023-04-18T11:11:32.611Z,134.00
2023-04-18T11:12:32.580Z,98.00
2023-04-18T11:13:32.578Z,95.00
2023-04-18T11:14:32.591Z,124.00
2023-04-18T11:15:32.603Z,79.00
2023-04-18T11:16:32.562Z,82.00
2023-04-18T11:17:32.647Z,96.00
2023-04-18T11:18:32.503Z,123.00
2023-04-18T11:19:32.519Z,128.00
2023-04-18T11:20:32.519Z,164.00
2023-04-18T11:21:32.463Z,84.00
2023-04-18T11:22:32.500Z,159.00
2023-04-18T11:23:32.478Z,105.00
2023-04-18T11:24:32.482Z,122.00
2023-04-18T11:25:32.489Z,116.00
2023-04-18T11:26:32.596Z,94.00
2023-04-18T11:27:32.432Z,120.00
2023-04-18T11:28:32.435Z,149.00
2023-04-18T11:29:32.405Z,141.00
2023-04-18T11:30:32.404Z,113.00
2023-04-18T11:31:32.490Z,98.00
2023-04-18T11:32:32.476Z,147.00
2023-04-18T11:33:32.373Z,106.00
2023-04-18T11:34:32.361Z,87.00
2023-04-18T11:35:32.337Z,102.00
2023-04-18T11:36:32.339Z,370.00
2023-04-18T11:37:32.328Z,174.00
2023-04-18T11:38:32.336Z,118.00
2023-04-18T11:39:32.334Z,146.00
2023-04-18T11:40:32.304Z,229.00
2023-04-18T11:41:32.308Z,161.00
2023-04-18T11:42:32.334Z,86.00
2023-04-18T11:43:32.298Z,62.00
2023-04-18T11:44:33.761Z,70.00
2023-04-18T11:45:32.253Z,84.00
2023-04-18T11:46:32.374Z,121.00
2023-04-18T11:47:32.264Z,239.00
2023-04-18T11:48:32.201Z,181.00
2023-04-18T11:49:32.226Z,149.00
2023-04-18T11:50:32.194Z,110.00
2023-04-18T11:51:32.188Z,77.00
2023-04-18T11:52:32.365Z,85.00
2023-04-18T11:53:32.163Z,96.00
2023-04-18T11:54:32.151Z,108.00
2023-04-18T11:55:32.180Z,125.00
2023-04-18T11:56:34.000Z,256.00
2023-04-18T11:57:32.145Z,108.00
2023-04-18T11:58:32.098Z,244.00
2023-04-18T11:59:32.081Z,117.00
2023-04-18T12:00:32.147Z,315.00
2023-04-18T12:01:32.105Z,340.00
2023-04-18T12:02:32.178Z,199.00
2023-04-18T12:03:32.217Z,193.00
2023-04-18T12:04:32.203Z,217.00
2023-04-18T12:05:32.310Z,157.00
2023-04-18T12:06:32.226Z,103.00
2023-04-18T12:07:32.023Z,281.00
2023-04-18T12:08:32.008Z,161.00
2023-04-18T12:09:32.003Z,289.00
2023-04-18T12:10:31.993Z,199.00
2023-04-18T12:11:31.975Z,142.00
2023-04-18T12:12:32.018Z,104.00
2023-04-18T12:13:32.027Z,91.00
2023-04-18T12:14:31.963Z,266.00
2023-04-18T12:15:31.978Z,87.00
2023-04-18T12:16:32.041Z,104.00
2023-04-18T12:17:31.936Z,104.00
2023-04-18T12:18:31.944Z,162.00
2023-04-18T12:19:31.905Z,157.00
2023-04-18T12:20:32.174Z,163.00
2023-04-18T12:21:31.906Z,113.00
2023-04-18T12:22:31.869Z,257.00
2023-04-18T12:23:31.865Z,122.00
2023-04-18T12:24:31.873Z,254.00
2023-04-18T12:25:31.847Z,183.00
2023-04-18T12:26:31.890Z,106.00
2023-04-18T12:27:31.798Z,93.00
2023-04-18T12:28:31.804Z,165.00
2023-04-18T12:29:31.779Z,139.00
2023-04-18T12:30:31.816Z,197.00
2023-04-18T12:31:31.803Z,198.00
2023-04-18T12:32:31.843Z,111.00
2023-04-18T12:33:31.818Z,233.00
2023-04-18T12:34:31.754Z,192.00
2023-04-18T12:35:31.737Z,91.00
2023-04-18T12:36:31.742Z,191.00
2023-04-18T12:37:31.694Z,176.00
2023-04-18T12:38:31.700Z,201.00
2023-04-18T12:39:31.686Z,85.00
2023-04-18T12:40:31.701Z,112.00
2023-04-18T12:41:31.725Z,151.00
2023-04-18T12:42:31.671Z,365.00
2023-04-18T12:43:31.656Z,261.00
2023-04-18T12:44:31.628Z,108.00
2023-04-18T12:45:31.646Z,114.00
2023-04-18T12:46:31.621Z,135.00
2023-04-18T12:47:31.694Z,171.00
2023-04-18T12:48:31.646Z,270.00
2023-04-18T12:49:31.734Z,241.00
2023-04-18T12:50:31.596Z,264.00
2023-04-18T12:51:31.550Z,169.00
2023-04-18T12:52:31.559Z,195.00
2023-04-18T12:53:31.542Z,123.00
2023-04-18T12:54:31.551Z,192.00
2023-04-18T12:55:31.527Z,129.00
2023-04-18T12:56:31.507Z,172.00
2023-04-18T12:57:31.857Z,101.00
2023-04-18T12:58:31.501Z,210.00
2023-04-18T12:59:31.467Z,187.00
2023-04-18T13:00:31.501Z,200.00
2023-04-18T13:01:31.515Z,160.00
2023-04-18T13:02:31.560Z,107.00
2023-04-18T13:03:31.671Z,186.00
2023-04-18T13:04:31.798Z,87.00
2023-04-18T13:05:34.019Z,140.00
2023-04-18T13:06:31.398Z,83.00
2023-04-18T13:07:31.376Z,130.00
2023-04-18T13:08:31.452Z,168.00
2023-04-18T13:09:31.415Z,88.00
2023-04-18T13:10:31.357Z,102.00
2023-04-18T13:11:31.351Z,127.00
2023-04-18T13:12:31.357Z,110.00
2023-04-18T13:13:31.893Z,87.00
2023-04-18T13:14:31.324Z,144.00
2023-04-18T13:15:31.365Z,251.00
2023-04-18T13:16:31.332Z,110.00
2023-04-18T13:17:31.418Z,84.00
2023-04-18T13:18:31.294Z,97.00
2023-04-18T13:19:31.276Z,201.00
2023-04-18T13:20:31.248Z,140.00
2023-04-18T13:21:31.256Z,105.00
2023-04-18T13:22:31.229Z,253.00
2023-04-18T13:23:31.304Z,167.00
2023-04-18T13:24:31.212Z,131.00
2023-04-18T13:25:31.285Z,172.00
2023-04-18T13:26:31.187Z,130.00
2023-04-18T13:27:31.177Z,144.00
2023-04-18T13:28:31.261Z,205.00
2023-04-18T13:29:31.210Z,93.00
2023-04-18T13:30:31.153Z,109.00
2023-04-18T13:31:31.185Z,271.00
2023-04-18T13:32:31.166Z,284.00
2023-04-18T13:33:31.125Z,172.00
2023-04-18T13:34:31.113Z,177.00
2023-04-18T13:35:31.251Z,109.00
2023-04-18T13:36:31.096Z,196.00
2023-04-18T13:37:31.078Z,129.00
2023-04-18T13:38:31.097Z,178.00
2023-04-18T13:39:31.785Z,182.00
2023-04-18T13:40:31.051Z,117.00
2023-04-18T13:41:31.044Z,160.00
2023-04-18T13:42:31.672Z,215.00
2023-04-18T13:43:31.084Z,190.00
2023-04-18T13:44:30.995Z,143.00
2023-04-18T13:45:31.040Z,140.00
2023-04-18T13:46:31.064Z,125.00
2023-04-18T13:47:31.068Z,163.00
2023-04-18T13:48:31.009Z,111.00
2023-04-18T13:49:30.960Z,224.00
2023-04-18T13:50:30.977Z,191.00
2023-04-18T13:51:31.044Z,114.00
2023-04-18T13:52:30.928Z,206.00
2023-04-18T13:53:31.309Z,167.00
2023-04-18T13:54:30.890Z,211.00
2023-04-18T13:55:30.908Z,317.00
2023-04-18T13:56:30.908Z,246.00
2023-04-18T13:57:30.924Z,154.00
2023-04-18T13:58:30.878Z,119.00
2023-04-18T13:59:30.879Z,99.00
2023-04-18T14:00:30.894Z,144.00
2023-04-18T14:01:40.480Z,218.00
2023-04-18T14:02:31.014Z,152.00
2023-04-18T14:03:38.850Z,105.00
2023-04-18T14:04:37.801Z,195.00
2023-04-18T14:05:37.840Z,124.00
2023-04-18T14:06:30.843Z,172.00
2023-04-18T14:07:40.300Z,126.00
2023-04-18T14:08:40.698Z,227.00
2023-04-18T14:09:39.384Z,135.00
2023-04-18T14:10:39.533Z,145.00
2023-04-18T14:11:40.273Z,152.00
2023-04-18T14:12:38.268Z,305.00
2023-04-18T14:13:40.653Z,231.00
2023-04-18T14:14:42.771Z,152.00
2023-04-18T14:15:31.084Z,112.00
2023-04-18T14:16:32.266Z,222.00
2023-04-18T14:17:30.669Z,123.00
2023-04-18T14:18:30.657Z,232.00
2023-04-18T14:19:30.770Z,183.00
2023-04-18T14:20:30.630Z,122.00
2023-04-18T14:21:30.713Z,161.00
2023-04-18T14:22:30.704Z,244.00
2023-04-18T14:23:30.640Z,257.00
2023-04-18T14:24:30.693Z,173.00
2023-04-18T14:25:30.946Z,155.00
2023-04-18T14:26:30.972Z,378.00
2023-04-18T14:27:30.664Z,128.00
2023-04-18T14:28:30.743Z,169.00
2023-04-18T14:29:30.663Z,207.00
2023-04-18T14:30:30.550Z,220.00
2023-04-18T14:31:30.563Z,219.00
2023-04-18T14:32:31.553Z,230.00
2023-04-18T14:33:32.889Z,254.00
2023-04-18T14:34:32.680Z,611.00
2023-04-18T14:35:30.489Z,138.00
2023-04-18T14:36:30.602Z,204.00
2023-04-18T14:37:30.524Z,206.00
2023-04-18T14:38:30.445Z,197.00
2023-04-18T14:39:30.456Z,209.00
2023-04-18T14:40:32.581Z,247.00
2023-04-18T14:41:30.440Z,238.00
2023-04-18T14:42:31.025Z,434.00
2023-04-18T14:43:30.488Z,183.00
2023-04-18T14:44:37.294Z,335.00
2023-04-18T14:45:37.353Z,166.00
2023-04-18T14:46:37.103Z,294.00
2023-04-18T14:48:48.659Z,142.00
2023-04-18T14:49:56.096Z,146.00
2023-04-18T14:51:00.242Z,147.00
2023-04-18T14:51:56.531Z,140.00
2023-04-18T14:54:00.162Z,136.00
2023-04-18T14:55:10.316Z,138.00
2023-04-18T14:57:20.222Z,167.00
2023-04-18T14:58:30.483Z,154.00
2023-04-18T14:59:28.004Z,275.00
2023-04-18T15:00:21.158Z,230.00
2023-04-18T15:01:29.546Z,105.00
2023-04-18T15:02:29.187Z,412.00
2023-04-18T15:03:28.574Z,125.00
2023-04-18T15:04:29.338Z,172.00
2023-04-18T15:05:27.764Z,330.00
2023-04-18T15:06:30.845Z,116.00
2023-04-18T15:07:29.156Z,153.00
2023-04-18T15:08:30.715Z,214.00
2023-04-18T15:11:44.424Z,187.00
2023-04-18T15:12:52.854Z,191.00
2023-04-18T15:13:54.764Z,197.00
2023-04-18T15:14:53.519Z,318.00
2023-04-18T15:15:54.402Z,111.00
2023-04-18T15:16:45.410Z,104.00
2023-04-18T15:18:11.381Z,121.00
2023-04-18T15:18:45.416Z,496.00
2023-04-18T15:21:02.798Z,197.00
2023-04-18T15:22:12.269Z,222.00
2023-04-18T15:23:11.705Z,352.00
2023-04-18T15:24:14.175Z,1698.00
2023-04-18T15:25:13.362Z,834.00
2023-04-18T15:26:12.405Z,97.00
2023-04-18T15:27:11.081Z,155.00
2023-04-18T15:28:11.131Z,313.00
2023-04-18T15:29:11.342Z,118.00
2023-04-18T15:31:16.102Z,108.00
2023-04-18T15:32:40.935Z,103.00
2023-04-18T15:33:25.771Z,127.00
2023-04-18T15:34:25.317Z,118.00
2023-04-18T15:35:25.533Z,114.00
2023-04-18T15:36:25.810Z,113.00
2023-04-18T15:37:25.773Z,109.00
2023-04-18T15:38:25.945Z,107.00
2023-04-18T15:39:16.976Z,108.00
2023-04-18T15:40:26.071Z,109.00
2023-04-18T15:41:28.505Z,115.00
2023-04-18T15:42:24.672Z,119.00
2023-04-18T15:45:05.882Z,1175.00
2023-04-18T15:46:15.813Z,1744.00
2023-04-18T15:47:15.420Z,150.00
2023-04-18T15:48:14.474Z,396.00
2023-04-18T15:49:14.817Z,95.00
2023-04-18T15:50:17.726Z,299.00
2023-04-18T15:51:13.676Z,126.00
2023-04-18T15:52:15.912Z,213.00
2023-04-18T15:53:14.510Z,2940.00
2023-04-18T15:54:14.037Z,2071.00
2023-04-18T15:55:15.012Z,9096.00
2023-04-18T15:56:14.655Z,8053.00
2023-04-18T15:57:15.555Z,5432.00
2023-04-18T15:58:06.668Z,1241.00
2023-04-18T15:59:16.978Z,6272.00
2023-04-18T16:00:15.981Z,3979.00
2023-04-18T16:01:17.225Z,7758.00
2023-04-18T16:02:13.380Z,10467.00
2023-04-18T16:03:13.855Z,11444.00
2023-04-18T16:04:15.686Z,2098.00
2023-04-18T16:05:14.386Z,3821.00
2023-04-18T16:06:17.035Z,1420.00
2023-04-18T16:07:06.536Z,130.00
2023-04-18T16:08:16.445Z,113.00
2023-04-18T16:09:17.444Z,104.00
2023-04-18T16:10:15.660Z,102.00
2023-04-18T16:11:14.490Z,99.00
2023-04-18T16:12:15.657Z,94.00
2023-04-18T16:13:15.064Z,88.00
2023-04-18T16:14:13.762Z,84.00
2023-04-18T16:15:14.419Z,163.00
2023-04-18T16:16:14.350Z,69.00